sensor_id;sensor_type;location;lat;lon;timestamp;pressure;altitude;pressure_sealevel;temperature;humidity
57192;BME280;43052;52.588;13.396;2022-12-08T00:00:44;100487.81;;;0.66;77.98
57192;BME280;43052;52.588;13.396;2022-12-08T00:03:09;100487.84;;;0.67;78.19
57192;BME280;43052;52.588;13.396;2022-12-08T00:05:34;100482.81;;;0.70;78.30
57192;BME280;43052;52.588;13.396;2022-12-08T00:08:18;100485.59;;;0.78;78.44
57192;BME280;43052;52.588;13.396;2022-12-08T00:11:02;100485.72;;;0.83;78.20
57192;BME280;43052;52.588;13.396;2022-12-08T00:13:27;100487.53;;;0.85;78.12
57192;BME280;43052;52.588;13.396;2022-12-08T00:15:58;100493.69;;;0.90;78.20
57192;BME280;43052;52.588;13.396;2022-12-08T00:18:24;100491.97;;;0.91;78.08
57192;BME280;43052;52.588;13.396;2022-12-08T00:20:54;100488.69;;;0.95;77.83
57192;BME280;43052;52.588;13.396;2022-12-08T00:23:19;100484.41;;;0.96;77.99
57192;BME280;43052;52.588;13.396;2022-12-08T00:25:45;100485.34;;;0.99;77.92
57192;BME280;43052;52.588;13.396;2022-12-08T00:28:10;100485.34;;;0.99;78.02
57192;BME280;43052;52.588;13.396;2022-12-08T00:30:38;100475.88;;;0.98;77.70
57192;BME280;43052;52.588;13.396;2022-12-08T00:33:04;100472.53;;;1.01;77.92
57192;BME280;43052;52.588;13.396;2022-12-08T00:35:29;100473.41;;;1.01;77.82
57192;BME280;43052;52.588;13.396;2022-12-08T00:37:54;100470.03;;;1.04;77.86
57192;BME280;43052;52.588;13.396;2022-12-08T00:40:20;100464.97;;;1.07;78.32
57192;BME280;43052;52.588;13.396;2022-12-08T00:42:45;100462.50;;;1.10;77.89
57192;BME280;43052;52.588;13.396;2022-12-08T00:45:10;100448.91;;;1.16;77.80
57192;BME280;43052;52.588;13.396;2022-12-08T00:47:35;100456.81;;;1.22;78.06
57192;BME280;43052;52.588;13.396;2022-12-08T00:50:01;100455.22;;;1.27;77.91
57192;BME280;43052;52.588;13.396;2022-12-08T00:52:26;100453.66;;;1.32;77.85
57192;BME280;43052;52.588;13.396;2022-12-08T00:54:51;100460.66;;;1.38;78.03
57192;BME280;43052;52.588;13.396;2022-12-08T00:57:16;100459.97;;;1.44;77.67
57192;BME280;43052;52.588;13.396;2022-12-08T00:59:42;100455.72;;;1.46;77.60
57192;BME280;43052;52.588;13.396;2022-12-08T01:02:07;100463.56;;;1.49;77.60
57192;BME280;43052;52.588;13.396;2022-12-08T01:04:32;100459.34;;;1.52;77.85
57192;BME280;43052;52.588;13.396;2022-12-08T01:06:57;100457.72;;;1.56;77.52
57192;BME280;43052;52.588;13.396;2022-12-08T01:09:22;100462.00;;;1.55;77.49
57192;BME280;43052;52.588;13.396;2022-12-08T01:11:48;100452.63;;;1.59;77.47
57192;BME280;43052;52.588;13.396;2022-12-08T01:14:13;100460.50;;;1.64;77.52
57192;BME280;43052;52.588;13.396;2022-12-08T01:16:39;100456.25;;;1.66;77.61
57192;BME280;43052;52.588;13.396;2022-12-08T01:19:05;100458.09;;;1.70;77.41
57192;BME280;43052;52.588;13.396;2022-12-08T01:21:31;100461.66;;;1.75;77.35
57192;BME280;43052;52.588;13.396;2022-12-08T01:23:58;100453.19;;;1.81;77.58
57192;BME280;43052;52.588;13.396;2022-12-08T01:26:24;100447.25;;;1.83;77.67
57192;BME280;43052;52.588;13.396;2022-12-08T01:28:49;100446.53;;;1.89;77.48
57192;BME280;43052;52.588;13.396;2022-12-08T01:31:17;100444.88;;;1.91;77.37
57192;BME280;43052;52.588;13.396;2022-12-08T01:33:43;100439.59;;;1.86;77.38
57192;BME280;43052;52.588;13.396;2022-12-08T01:36:18;100445.69;;;1.90;77.61
57192;BME280;43052;52.588;13.396;2022-12-08T01:38:44;100441.44;;;1.92;77.51
57192;BME280;43052;52.588;13.396;2022-12-08T01:41:13;100435.50;;;1.95;77.33
57192;BME280;43052;52.588;13.396;2022-12-08T01:43:54;100433.00;;;1.98;77.49
57192;BME280;43052;52.588;13.396;2022-12-08T01:46:21;100433.84;;;1.97;77.18
57192;BME280;43052;52.588;13.396;2022-12-08T01:48:46;100425.19;;;1.95;77.35
57192;BME280;43052;52.588;13.396;2022-12-08T01:51:12;100419.22;;;1.97;77.27
57192;BME280;43052;52.588;13.396;2022-12-08T01:53:38;100417.56;;;1.99;77.61
57192;BME280;43052;52.588;13.396;2022-12-08T01:56:13;100412.38;;;1.99;77.28
57192;BME280;43052;52.588;13.396;2022-12-08T01:58:43;100410.75;;;2.03;77.51
57192;BME280;43052;52.588;13.396;2022-12-08T02:01:10;100409.94;;;2.06;77.49
57192;BME280;43052;52.588;13.396;2022-12-08T02:03:56;100410.00;;;2.07;77.33
57192;BME280;43052;52.588;13.396;2022-12-08T02:06:23;100398.78;;;2.05;77.45
57192;BME280;43052;52.588;13.396;2022-12-08T02:08:48;100403.97;;;2.07;77.45
57192;BME280;43052;52.588;13.396;2022-12-08T02:11:14;100398.00;;;2.09;77.48
57192;BME280;43052;52.588;13.396;2022-12-08T02:13:42;100398.91;;;2.11;77.47
57192;BME280;43052;52.588;13.396;2022-12-08T02:16:16;100397.25;;;2.13;77.43
57192;BME280;43052;52.588;13.396;2022-12-08T02:21:43;100382.69;;;2.15;76.88
57192;BME280;43052;52.588;13.396;2022-12-08T02:24:26;100378.28;;;2.13;76.92
57192;BME280;43052;52.588;13.396;2022-12-08T02:30:07;100370.53;;;2.11;76.85
57192;BME280;43052;52.588;13.396;2022-12-08T02:33:00;100367.94;;;2.11;76.80
57192;BME280;43052;52.588;13.396;2022-12-08T02:35:48;100369.63;;;2.09;76.85
57192;BME280;43052;52.588;13.396;2022-12-08T02:38:28;100375.69;;;2.11;76.90
57192;BME280;43052;52.588;13.396;2022-12-08T02:41:06;100373.97;;;2.12;76.83
57192;BME280;43052;52.588;13.396;2022-12-08T02:43:45;100374.06;;;2.16;76.84
57192;BME280;43052;52.588;13.396;2022-12-08T02:46:15;100369.78;;;2.15;76.86
57192;BME280;43052;52.588;13.396;2022-12-08T02:48:42;100364.63;;;2.15;76.99
57192;BME280;43052;52.588;13.396;2022-12-08T02:51:08;100361.16;;;2.15;76.92
57192;BME280;43052;52.588;13.396;2022-12-08T02:53:34;100360.28;;;2.14;77.14
57192;BME280;43052;52.588;13.396;2022-12-08T02:56:13;100353.44;;;2.16;76.97
57192;BME280;43052;52.588;13.396;2022-12-08T02:58:59;100350.84;;;2.16;76.76
57192;BME280;43052;52.588;13.396;2022-12-08T03:07:38;100340.53;;;2.16;76.73
57192;BME280;43052;52.588;13.396;2022-12-08T03:10:28;100335.44;;;2.18;76.95
57192;BME280;43052;52.588;13.396;2022-12-08T03:13:04;100331.19;;;2.22;76.91
57192;BME280;43052;52.588;13.396;2022-12-08T03:15:32;100335.53;;;2.24;76.55
57192;BME280;43052;52.588;13.396;2022-12-08T03:17:59;100326.13;;;2.26;76.63
57192;BME280;43052;52.588;13.396;2022-12-08T03:20:26;100328.72;;;2.26;76.49
57192;BME280;43052;52.588;13.396;2022-12-08T03:22:55;100320.91;;;2.23;76.76
57192;BME280;43052;52.588;13.396;2022-12-08T03:25:23;100324.47;;;2.28;76.63
57192;BME280;43052;52.588;13.396;2022-12-08T03:27:50;100316.72;;;2.28;76.59
57192;BME280;43052;52.588;13.396;2022-12-08T03:30:16;100314.16;;;2.30;76.65
57192;BME280;43052;52.588;13.396;2022-12-08T03:33:01;100315.03;;;2.30;76.55
57192;BME280;43052;52.588;13.396;2022-12-08T03:35:30;100308.94;;;2.27;76.65
57192;BME280;43052;52.588;13.396;2022-12-08T03:38:08;100300.34;;;2.26;76.60
57192;BME280;43052;52.588;13.396;2022-12-08T03:40:35;100302.13;;;2.30;76.36
57192;BME280;43052;52.588;13.396;2022-12-08T03:43:00;100293.50;;;2.28;76.50
57192;BME280;43052;52.588;13.396;2022-12-08T03:45:26;100293.44;;;2.27;76.51
57192;BME280;43052;52.588;13.396;2022-12-08T03:47:51;100291.78;;;2.29;76.53
57192;BME280;43052;52.588;13.396;2022-12-08T03:50:16;100289.28;;;2.32;76.49
57192;BME280;43052;52.588;13.396;2022-12-08T03:52:42;100293.53;;;2.31;76.73
57192;BME280;43052;52.588;13.396;2022-12-08T03:55:07;100282.31;;;2.29;76.44
57192;BME280;43052;52.588;13.396;2022-12-08T03:57:33;100278.94;;;2.32;76.54
57192;BME280;43052;52.588;13.396;2022-12-08T03:59:58;100272.88;;;2.30;76.43
57192;BME280;43052;52.588;13.396;2022-12-08T04:02:23;100281.53;;;2.32;76.62
57192;BME280;43052;52.588;13.396;2022-12-08T04:04:48;100272.88;;;2.30;76.54
57192;BME280;43052;52.588;13.396;2022-12-08T04:07:14;100265.91;;;2.26;76.55
57192;BME280;43052;52.588;13.396;2022-12-08T04:09:39;100266.69;;;2.22;76.69
57192;BME280;43052;52.588;13.396;2022-12-08T04:12:06;100252.88;;;2.19;76.74
57192;BME280;43052;52.588;13.396;2022-12-08T04:14:31;100262.28;;;2.17;76.65
57192;BME280;43052;52.588;13.396;2022-12-08T04:16:57;100251.94;;;2.16;76.85
57192;BME280;43052;52.588;13.396;2022-12-08T04:19:22;100256.25;;;2.15;76.72
57192;BME280;43052;52.588;13.396;2022-12-08T04:21:47;100255.38;;;2.16;76.46
57192;BME280;43052;52.588;13.396;2022-12-08T04:24:12;100256.25;;;2.15;76.76
57192;BME280;43052;52.588;13.396;2022-12-08T04:26:38;100257.09;;;2.14;76.71
57192;BME280;43052;52.588;13.396;2022-12-08T04:29:03;100253.63;;;2.14;76.74
57192;BME280;43052;52.588;13.396;2022-12-08T04:31:28;100254.44;;;2.11;76.61
57192;BME280;43052;52.588;13.396;2022-12-08T04:33:53;100246.63;;;2.08;76.58
57192;BME280;43052;52.588;13.396;2022-12-08T04:36:19;100248.38;;;2.09;76.72
57192;BME280;43052;52.588;13.396;2022-12-08T04:38:44;100250.13;;;2.12;76.72
57192;BME280;43052;52.588;13.396;2022-12-08T04:41:09;100251.09;;;2.15;76.67
57192;BME280;43052;52.588;13.396;2022-12-08T04:43:35;100248.50;;;2.15;76.69
57192;BME280;43052;52.588;13.396;2022-12-08T04:46:00;100240.69;;;2.12;76.50
57192;BME280;43052;52.588;13.396;2022-12-08T04:48:26;100247.56;;;2.12;76.75
57192;BME280;43052;52.588;13.396;2022-12-08T04:50:51;100241.63;;;2.14;76.80
57192;BME280;43052;52.588;13.396;2022-12-08T04:53:16;100241.63;;;2.14;76.56
57192;BME280;43052;52.588;13.396;2022-12-08T04:55:42;100240.78;;;2.17;76.54
57192;BME280;43052;52.588;13.396;2022-12-08T04:58:11;100242.47;;;2.15;76.74
57192;BME280;43052;52.588;13.396;2022-12-08T05:00:38;100237.22;;;2.12;76.70
57192;BME280;43052;52.588;13.396;2022-12-08T05:03:03;100232.84;;;2.06;76.81
57192;BME280;43052;52.588;13.396;2022-12-08T05:05:28;100235.34;;;2.03;76.99
57192;BME280;43052;52.588;13.396;2022-12-08T05:07:53;100243.94;;;2.03;77.11
57192;BME280;43052;52.588;13.396;2022-12-08T05:10:18;100225.97;;;2.08;76.80
57192;BME280;43052;52.588;13.396;2022-12-08T05:12:44;100226.91;;;2.12;76.74
57192;BME280;43052;52.588;13.396;2022-12-08T05:15:09;100232.16;;;2.15;76.88
57192;BME280;43052;52.588;13.396;2022-12-08T05:17:34;100238.03;;;2.09;76.79
57192;BME280;43052;52.588;13.396;2022-12-08T05:20:00;100232.97;;;2.14;77.01
57192;BME280;43052;52.588;13.396;2022-12-08T05:22:25;100233.06;;;2.18;77.07
57192;BME280;43052;52.588;13.396;2022-12-08T05:24:50;100228.75;;;2.17;76.97
57192;BME280;43052;52.588;13.396;2022-12-08T05:27:15;100223.59;;;2.17;77.24
57192;BME280;43052;52.588;13.396;2022-12-08T05:29:41;100224.53;;;2.21;77.12
57192;BME280;43052;52.588;13.396;2022-12-08T05:32:06;100219.50;;;2.27;76.98
57192;BME280;43052;52.588;13.396;2022-12-08T05:34:31;100223.84;;;2.28;76.90
57192;BME280;43052;52.588;13.396;2022-12-08T05:36:57;100220.44;;;2.31;76.70
57192;BME280;43052;52.588;13.396;2022-12-08T05:39:22;100217.91;;;2.34;76.88
57192;BME280;43052;52.588;13.396;2022-12-08T05:41:47;100223.97;;;2.36;77.04
57192;BME280;43052;52.588;13.396;2022-12-08T05:44:13;100218.66;;;2.28;76.99
57192;BME280;43052;52.588;13.396;2022-12-08T05:46:38;100213.34;;;2.21;76.98
57192;BME280;43052;52.588;13.396;2022-12-08T05:49:03;100204.59;;;2.12;77.07
57192;BME280;43052;52.588;13.396;2022-12-08T05:51:29;100218.16;;;2.03;77.15
57192;BME280;43052;52.588;13.396;2022-12-08T05:53:54;100215.34;;;1.93;77.21
57192;BME280;43052;52.588;13.396;2022-12-08T05:56:20;100209.97;;;1.82;77.16
57192;BME280;43052;52.588;13.396;2022-12-08T05:58:46;100213.28;;;1.75;77.51
57192;BME280;43052;52.588;13.396;2022-12-08T06:01:26;100212.28;;;1.69;77.29
57192;BME280;43052;52.588;13.396;2022-12-08T06:03:52;100204.53;;;1.69;77.48
57192;BME280;43052;52.588;13.396;2022-12-08T06:06:18;100216.72;;;1.77;77.60
57192;BME280;43052;52.588;13.396;2022-12-08T06:08:44;100213.50;;;1.87;77.62
57192;BME280;43052;52.588;13.396;2022-12-08T06:11:09;100211.09;;;1.93;77.74
57192;BME280;43052;52.588;13.396;2022-12-08T06:13:34;100211.19;;;1.98;77.37
57192;BME280;43052;52.588;13.396;2022-12-08T06:16:06;100206.16;;;2.04;77.66
57192;BME280;43052;52.588;13.396;2022-12-08T06:18:32;100215.63;;;2.05;77.50
57192;BME280;43052;52.588;13.396;2022-12-08T06:21:04;100209.56;;;2.03;77.43
57192;BME280;43052;52.588;13.396;2022-12-08T06:23:30;100212.97;;;2.02;77.67
57192;BME280;43052;52.588;13.396;2022-12-08T06:26:02;100212.16;;;2.04;77.44
57192;BME280;43052;52.588;13.396;2022-12-08T06:28:29;100204.50;;;2.09;77.65
57192;BME280;43052;52.588;13.396;2022-12-08T06:30:55;100203.78;;;2.16;77.61
57192;BME280;43052;52.588;13.396;2022-12-08T06:33:20;100205.53;;;2.17;77.72
57192;BME280;43052;52.588;13.396;2022-12-08T06:35:46;100219.31;;;2.18;77.81
57192;BME280;43052;52.588;13.396;2022-12-08T06:38:11;100207.34;;;2.22;77.90
57192;BME280;43052;52.588;13.396;2022-12-08T06:40:36;100209.13;;;2.24;77.83
57192;BME280;43052;52.588;13.396;2022-12-08T06:43:01;100214.25;;;2.23;78.04
57192;BME280;43052;52.588;13.396;2022-12-08T06:45:27;100213.41;;;2.24;78.16
57192;BME280;43052;52.588;13.396;2022-12-08T06:47:52;100213.41;;;2.24;77.87
57192;BME280;43052;52.588;13.396;2022-12-08T06:50:17;100217.75;;;2.25;78.07
57192;BME280;43052;52.588;13.396;2022-12-08T06:52:42;100207.47;;;2.28;77.79
57192;BME280;43052;52.588;13.396;2022-12-08T06:55:10;100210.06;;;2.29;77.99
57192;BME280;43052;52.588;13.396;2022-12-08T06:57:35;100208.38;;;2.30;78.02
57192;BME280;43052;52.588;13.396;2022-12-08T07:00:00;100217.84;;;2.31;78.08
57192;BME280;43052;52.588;13.396;2022-12-08T07:02:25;100216.19;;;2.33;78.43
57192;BME280;43052;52.588;13.396;2022-12-08T07:04:51;100216.19;;;2.33;78.27
57192;BME280;43052;52.588;13.396;2022-12-08T07:07:16;100212.72;;;2.32;77.99
57192;BME280;43052;52.588;13.396;2022-12-08T07:09:41;100217.06;;;2.35;78.26
57192;BME280;43052;52.588;13.396;2022-12-08T07:12:06;100218.84;;;2.38;78.14
57192;BME280;43052;52.588;13.396;2022-12-08T07:14:32;100222.41;;;2.44;78.15
57192;BME280;43052;52.588;13.396;2022-12-08T07:16:57;100231.13;;;2.51;78.26
57192;BME280;43052;52.588;13.396;2022-12-08T07:19:22;100223.41;;;2.53;78.22
57192;BME280;43052;52.588;13.396;2022-12-08T07:21:47;100223.47;;;2.56;78.20
57192;BME280;43052;52.588;13.396;2022-12-08T07:24:13;100214.06;;;2.59;78.23
57192;BME280;43052;52.588;13.396;2022-12-08T07:26:39;100219.31;;;2.64;78.29
57192;BME280;43052;52.588;13.396;2022-12-08T07:29:04;100219.41;;;2.70;78.18
57192;BME280;43052;52.588;13.396;2022-12-08T07:31:29;100216.88;;;2.72;78.28
57192;BME280;43052;52.588;13.396;2022-12-08T07:33:55;100215.22;;;2.75;78.15
57192;BME280;43052;52.588;13.396;2022-12-08T07:36:21;100214.38;;;2.76;78.23
57192;BME280;43052;52.588;13.396;2022-12-08T07:38:47;100222.13;;;2.76;77.94
57192;BME280;43052;52.588;13.396;2022-12-08T07:41:16;100221.31;;;2.79;77.82
57192;BME280;43052;52.588;13.396;2022-12-08T07:43:42;100218.78;;;2.82;78.03
57192;BME280;43052;52.588;13.396;2022-12-08T07:46:12;100218.81;;;2.84;77.95
57192;BME280;43052;52.588;13.396;2022-12-08T07:48:40;100219.75;;;2.89;78.15
57192;BME280;43052;52.588;13.396;2022-12-08T07:51:06;100216.41;;;2.94;78.07
57192;BME280;43052;52.588;13.396;2022-12-08T07:53:31;100217.31;;;2.98;77.97
57192;BME280;43052;52.588;13.396;2022-12-08T07:55:57;100212.22;;;3.01;77.75
57192;BME280;43052;52.588;13.396;2022-12-08T07:58:23;100214.84;;;3.04;77.82
57192;BME280;43052;52.588;13.396;2022-12-08T08:00:48;100210.56;;;3.05;77.66
57192;BME280;43052;52.588;13.396;2022-12-08T08:03:13;100226.00;;;3.02;77.77
57192;BME280;43052;52.588;13.396;2022-12-08T08:05:39;100230.31;;;3.03;77.83
57192;BME280;43052;52.588;13.396;2022-12-08T08:08:04;100233.81;;;3.06;77.71
57192;BME280;43052;52.588;13.396;2022-12-08T08:10:29;100231.22;;;3.05;77.56
57192;BME280;43052;52.588;13.396;2022-12-08T08:12:58;100236.41;;;3.06;77.72
57192;BME280;43052;52.588;13.396;2022-12-08T08:15:24;100237.38;;;3.11;77.57
57192;BME280;43052;52.588;13.396;2022-12-08T08:17:50;100234.03;;;3.17;77.55
57192;BME280;43052;52.588;13.396;2022-12-08T08:20:16;100231.47;;;3.22;77.38
57192;BME280;43052;52.588;13.396;2022-12-08T08:22:41;100237.53;;;3.21;77.45
57192;BME280;43052;52.588;13.396;2022-12-08T08:25:07;100234.06;;;3.20;77.46
57192;BME280;43052;52.588;13.396;2022-12-08T08:27:32;100233.19;;;3.20;77.78
57192;BME280;43052;52.588;13.396;2022-12-08T08:29:58;100229.78;;;3.21;77.58
57192;BME280;43052;52.588;13.396;2022-12-08T08:32:23;100223.78;;;3.23;77.84
57192;BME280;43052;52.588;13.396;2022-12-08T08:34:50;100223.81;;;3.26;77.28
57192;BME280;43052;52.588;13.396;2022-12-08T08:37:15;100222.22;;;3.35;77.44
57192;BME280;43052;52.588;13.396;2022-12-08T08:39:40;100222.38;;;3.45;77.31
57192;BME280;43052;52.588;13.396;2022-12-08T08:42:07;100220.78;;;3.55;77.12
57192;BME280;43052;52.588;13.396;2022-12-08T08:44:32;100227.78;;;3.61;77.08
57192;BME280;43052;52.588;13.396;2022-12-08T08:46:57;100232.16;;;3.65;76.85
57192;BME280;43052;52.588;13.396;2022-12-08T08:49:22;100228.75;;;3.71;76.24
57192;BME280;43052;52.588;13.396;2022-12-08T08:51:47;100225.31;;;3.70;76.27
57192;BME280;43052;52.588;13.396;2022-12-08T08:54:13;100227.91;;;3.70;76.35
57192;BME280;43052;52.588;13.396;2022-12-08T08:56:39;100222.81;;;3.76;76.47
57192;BME280;43052;52.588;13.396;2022-12-08T08:59:04;100224.84;;;3.99;76.39
57192;BME280;43052;52.588;13.396;2022-12-08T09:01:30;100222.56;;;4.26;76.18
57192;BME280;43052;52.588;13.396;2022-12-08T09:03:55;100222.78;;;4.44;76.01
57192;BME280;43052;52.588;13.396;2022-12-08T09:06:22;100216.84;;;4.56;75.60
57192;BME280;43052;52.588;13.396;2022-12-08T09:08:47;100206.59;;;4.65;75.29
57192;BME280;43052;52.588;13.396;2022-12-08T09:11:13;100208.34;;;4.68;75.41
57192;BME280;43052;52.588;13.396;2022-12-08T09:13:38;100212.72;;;4.74;75.07
57192;BME280;43052;52.588;13.396;2022-12-08T09:16:06;100212.72;;;4.72;74.74
57192;BME280;43052;52.588;13.396;2022-12-08T09:18:32;100208.38;;;4.73;74.56
57192;BME280;43052;52.588;13.396;2022-12-08T09:21:03;100213.59;;;4.74;74.81
57192;BME280;43052;52.588;13.396;2022-12-08T09:23:29;100206.63;;;4.70;74.55
57192;BME280;43052;52.588;13.396;2022-12-08T09:25:54;100210.06;;;4.66;74.51
57192;BME280;43052;52.588;13.396;2022-12-08T09:28:20;100207.44;;;4.64;74.49
57192;BME280;43052;52.588;13.396;2022-12-08T09:30:45;100204.84;;;4.61;74.18
57192;BME280;43052;52.588;13.396;2022-12-08T09:33:10;100199.56;;;4.55;74.30
57192;BME280;43052;52.588;13.396;2022-12-08T09:35:35;100197.00;;;4.55;74.48
57192;BME280;43052;52.588;13.396;2022-12-08T09:38:00;100193.53;;;4.53;74.43
57192;BME280;43052;52.588;13.396;2022-12-08T09:40:27;100196.88;;;4.46;74.38
57192;BME280;43052;52.588;13.396;2022-12-08T09:43:05;100191.69;;;4.43;74.06
57192;BME280;43052;52.588;13.396;2022-12-08T09:45:35;100187.38;;;4.43;73.88
57192;BME280;43052;52.588;13.396;2022-12-08T09:48:12;100189.13;;;4.43;74.19
57192;BME280;43052;52.588;13.396;2022-12-08T09:50:56;100175.31;;;4.44;73.83
57192;BME280;43052;52.588;13.396;2022-12-08T09:53:26;100177.91;;;4.44;73.52
57192;BME280;43052;52.588;13.396;2022-12-08T09:55:55;100184.78;;;4.42;73.74
57192;BME280;43052;52.588;13.396;2022-12-08T09:58:31;100186.47;;;4.39;73.45
57192;BME280;43052;52.588;13.396;2022-12-08T10:00:59;100176.94;;;4.34;73.59
57192;BME280;43052;52.588;13.396;2022-12-08T10:03:27;100183.00;;;4.34;73.78
57192;BME280;43052;52.588;13.396;2022-12-08T10:06:14;100182.09;;;4.31;73.83
57192;BME280;43052;52.588;13.396;2022-12-08T10:08:54;100180.31;;;4.28;73.82
57192;BME280;43052;52.588;13.396;2022-12-08T10:11:31;100188.88;;;4.21;73.71
57192;BME280;43052;52.588;13.396;2022-12-08T10:14:28;100181.03;;;4.13;73.80
57192;BME280;43052;52.588;13.396;2022-12-08T10:17:00;100181.84;;;4.11;74.08
57192;BME280;43052;52.588;13.396;2022-12-08T10:19:27;100168.84;;;4.04;73.95
57192;BME280;43052;52.588;13.396;2022-12-08T10:21:53;100176.56;;;4.01;74.10
57192;BME280;43052;52.588;13.396;2022-12-08T10:24:42;100173.16;;;4.04;74.15
57192;BME280;43052;52.588;13.396;2022-12-08T10:27:11;100173.22;;;4.08;74.22
57192;BME280;43052;52.588;13.396;2022-12-08T10:29:40;100169.84;;;4.14;74.08
57192;BME280;43052;52.588;13.396;2022-12-08T10:32:23;100170.78;;;4.22;73.99
57192;BME280;43052;52.588;13.396;2022-12-08T10:35:09;100163.97;;;4.32;74.14
57192;BME280;43052;52.588;13.396;2022-12-08T10:37:36;100158.06;;;4.46;74.08
57192;BME280;43052;52.588;13.396;2022-12-08T10:40:12;100159.88;;;4.53;73.64
57192;BME280;43052;52.588;13.396;2022-12-08T10:42:50;100158.13;;;4.53;73.77
57192;BME280;43052;52.588;13.396;2022-12-08T10:45:22;100153.84;;;4.57;73.57
57192;BME280;43052;52.588;13.396;2022-12-08T10:47:56;100153.00;;;4.58;73.65
57192;BME280;43052;52.588;13.396;2022-12-08T10:50:30;100144.38;;;4.59;73.85
57192;BME280;43052;52.588;13.396;2022-12-08T10:55:42;100151.31;;;4.63;73.42
57192;BME280;43052;52.588;13.396;2022-12-08T10:58:38;100149.66;;;4.68;73.47
57192;BME280;43052;52.588;13.396;2022-12-08T11:01:20;100146.25;;;4.77;73.33
57192;BME280;43052;52.588;13.396;2022-12-08T11:03:49;100151.47;;;4.79;73.31
57192;BME280;43052;52.588;13.396;2022-12-08T11:08:56;100137.66;;;4.80;73.38
57192;BME280;43052;52.588;13.396;2022-12-08T11:11:36;100142.84;;;4.81;73.25
57192;BME280;43052;52.588;13.396;2022-12-08T11:14:06;100135.06;;;4.83;73.39
57192;BME280;43052;52.588;13.396;2022-12-08T11:16:32;100139.38;;;4.81;73.07
57192;BME280;43052;52.588;13.396;2022-12-08T11:18:57;100136.81;;;4.82;73.17
57192;BME280;43052;52.588;13.396;2022-12-08T11:21:33;100132.44;;;4.75;73.14
57192;BME280;43052;52.588;13.396;2022-12-08T11:24:10;100138.41;;;4.66;72.98
57192;BME280;43052;52.588;13.396;2022-12-08T11:26:48;100141.78;;;4.61;73.33
57192;BME280;43052;52.588;13.396;2022-12-08T11:29:14;100142.59;;;4.55;73.23
57192;BME280;43052;52.588;13.396;2022-12-08T11:31:44;100132.16;;;4.46;73.41
57192;BME280;43052;52.588;13.396;2022-12-08T11:34:23;100134.75;;;4.43;73.44
57192;BME280;43052;52.588;13.396;2022-12-08T11:36:53;100139.00;;;4.37;73.71
57192;BME280;43052;52.588;13.396;2022-12-08T11:39:20;100139.00;;;4.37;73.84
57192;BME280;43052;52.588;13.396;2022-12-08T11:41:46;100137.28;;;4.41;73.59
57192;BME280;43052;52.588;13.396;2022-12-08T11:47:09;100144.91;;;4.26;73.64
57192;BME280;43052;52.588;13.396;2022-12-08T11:49:38;100148.38;;;4.26;73.74
57192;BME280;43052;52.588;13.396;2022-12-08T11:52:11;100154.47;;;4.30;73.67
57192;BME280;43052;52.588;13.396;2022-12-08T11:54:46;100144.97;;;4.29;73.67
57192;BME280;43052;52.588;13.396;2022-12-08T11:57:15;100151.88;;;4.33;73.86
57192;BME280;43052;52.588;13.396;2022-12-08T11:59:50;100138.19;;;4.43;73.95
57192;BME280;43052;52.588;13.396;2022-12-08T12:02:19;100146.94;;;4.56;73.59
57192;BME280;43052;52.588;13.396;2022-12-08T12:05:04;100147.88;;;4.61;73.49
57192;BME280;43052;52.588;13.396;2022-12-08T12:07:58;100144.34;;;4.54;73.73
57192;BME280;43052;52.588;13.396;2022-12-08T12:16:25;100144.34;;;4.53;73.63
57192;BME280;43052;52.588;13.396;2022-12-08T12:18:56;100150.38;;;4.55;73.46
57192;BME280;43052;52.588;13.396;2022-12-08T12:21:38;100142.59;;;4.53;73.77
57192;BME280;43052;52.588;13.396;2022-12-08T12:24:09;100144.34;;;4.53;73.44
57192;BME280;43052;52.588;13.396;2022-12-08T12:27:04;100144.34;;;4.56;73.57
57192;BME280;43052;52.588;13.396;2022-12-08T12:29:33;100139.28;;;4.67;73.52
57192;BME280;43052;52.588;13.396;2022-12-08T12:32:03;100138.47;;;4.77;73.75
57192;BME280;43052;52.588;13.396;2022-12-08T12:34:56;100136.84;;;4.90;73.36
57192;BME280;43052;52.588;13.396;2022-12-08T12:37:25;100136.94;;;4.98;73.53
57192;BME280;43052;52.588;13.396;2022-12-08T12:42:40;100134.34;;;4.96;73.57
57192;BME280;43052;52.588;13.396;2022-12-08T12:47:48;100132.63;;;5.01;73.97
57192;BME280;43052;52.588;13.396;2022-12-08T12:55:54;100121.47;;;5.10;73.69
57192;BME280;43052;52.588;13.396;2022-12-08T13:06:07;100115.41;;;5.11;73.41
57192;BME280;43052;52.588;13.396;2022-12-08T13:08:37;100121.47;;;5.10;73.55
57192;BME280;43052;52.588;13.396;2022-12-08T13:11:06;100129.22;;;5.09;73.43
57192;BME280;43052;52.588;13.396;2022-12-08T13:13:33;100121.44;;;5.09;73.54
57192;BME280;43052;52.588;13.396;2022-12-08T13:18:34;100125.84;;;5.21;73.98
57192;BME280;43052;52.588;13.396;2022-12-08T13:26:24;100130.28;;;5.39;74.49
57192;BME280;43052;52.588;13.396;2022-12-08T13:33:59;100123.25;;;5.21;74.17
57192;BME280;43052;52.588;13.396;2022-12-08T13:36:30;100123.22;;;5.14;74.27
57192;BME280;43052;52.588;13.396;2022-12-08T13:38:57;100131.03;;;5.17;74.48
57192;BME280;43052;52.588;13.396;2022-12-08T13:41:31;100134.44;;;5.12;74.20
57192;BME280;43052;52.588;13.396;2022-12-08T13:44:03;100126.63;;;5.09;73.84
57192;BME280;43052;52.588;13.396;2022-12-08T13:46:45;100134.34;;;4.99;74.11
57192;BME280;43052;52.588;13.396;2022-12-08T13:49:17;100134.28;;;4.92;73.89
57192;BME280;43052;52.588;13.396;2022-12-08T13:51:45;100141.16;;;4.86;73.96
57192;BME280;43052;52.588;13.396;2022-12-08T13:54:17;100135.94;;;4.82;74.09
57192;BME280;43052;52.588;13.396;2022-12-08T13:56:45;100133.28;;;4.74;73.63